sensor_id;sensor_type;location;lat;lon;timestamp;P1;durP1;ratioP1;P2;durP2;ratioP2
54745;SDS011;40640;48.130;11.356;2023-04-25T00:03:21;3.92;;;1.95;;
54745;SDS011;40640;48.130;11.356;2023-04-25T00:07:26;5.93;;;2.10;;
54745;SDS011;40640;48.130;11.356;2023-04-25T00:11:29;5.53;;;2.20;;
54745;SDS011;40640;48.130;11.356;2023-04-25T00:15:34;2.88;;;2.10;;
54745;SDS011;40640;48.130;11.356;2023-04-25T00:19:38;3.78;;;1.80;;
54745;SDS011;40640;48.130;11.356;2023-04-25T00:23:41;4.78;;;1.80;;
54745;SDS011;40640;48.130;11.356;2023-04-25T00:27:44;3.80;;;1.90;;
54745;SDS011;40640;48.130;11.356;2023-04-25T00:31:48;4.07;;;1.90;;
54745;SDS011;40640;48.130;11.356;2023-04-25T00:35:52;4.45;;;1.98;;
54745;SDS011;40640;48.130;11.356;2023-04-25T00:39:55;3.78;;;1.90;;
54745;SDS011;40640;48.130;11.356;2023-04-25T00:44:00;3.22;;;1.90;;
54745;SDS011;40640;48.130;11.356;2023-04-25T00:48:05;2.90;;;2.00;;
54745;SDS011;40640;48.130;11.356;2023-04-25T00:52:09;3.50;;;2.05;;
54745;SDS011;40640;48.130;11.356;2023-04-25T00:56:12;3.50;;;2.00;;
54745;SDS011;40640;48.130;11.356;2023-04-25T01:00:15;1.88;;;1.77;;
54745;SDS011;40640;48.130;11.356;2023-04-25T01:04:20;4.68;;;2.10;;
54745;SDS011;40640;48.130;11.356;2023-04-25T01:08:24;4.15;;;2.40;;
54745;SDS011;40640;48.130;11.356;2023-04-25T01:12:27;2.83;;;1.98;;
54745;SDS011;40640;48.130;11.356;2023-04-25T01:16:30;2.20;;;1.98;;
54745;SDS011;40640;48.130;11.356;2023-04-25T01:20:35;3.38;;;2.10;;
54745;SDS011;40640;48.130;11.356;2023-04-25T01:24:41;2.72;;;2.10;;
54745;SDS011;40640;48.130;11.356;2023-04-25T01:28:44;3.63;;;1.90;;
54745;SDS011;40640;48.130;11.356;2023-04-25T01:32:47;3.05;;;1.73;;
54745;SDS011;40640;48.130;11.356;2023-04-25T01:36:51;2.38;;;2.00;;
54745;SDS011;40640;48.130;11.356;2023-04-25T01:40:57;3.10;;;2.00;;
54745;SDS011;40640;48.130;11.356;2023-04-25T01:45:01;4.63;;;2.10;;
54745;SDS011;40640;48.130;11.356;2023-04-25T01:49:05;4.57;;;1.92;;
54745;SDS011;40640;48.130;11.356;2023-04-25T01:53:09;3.22;;;2.22;;
54745;SDS011;40640;48.130;11.356;2023-04-25T01:57:14;2.85;;;2.10;;
54745;SDS011;40640;48.130;11.356;2023-04-25T02:01:18;5.30;;;2.30;;
54745;SDS011;40640;48.130;11.356;2023-04-25T02:05:41;4.68;;;2.20;;
54745;SDS011;40640;48.130;11.356;2023-04-25T02:09:46;5.50;;;2.17;;
54745;SDS011;40640;48.130;11.356;2023-04-25T02:13:52;5.07;;;2.15;;
54745;SDS011;40640;48.130;11.356;2023-04-25T02:18:13;2.95;;;2.00;;
54745;SDS011;40640;48.130;11.356;2023-04-25T02:22:17;3.15;;;2.28;;
54745;SDS011;40640;48.130;11.356;2023-04-25T02:26:20;6.15;;;1.98;;
54745;SDS011;40640;48.130;11.356;2023-04-25T02:30:26;3.00;;;2.22;;
54745;SDS011;40640;48.130;11.356;2023-04-25T02:34:30;4.30;;;2.50;;
54745;SDS011;40640;48.130;11.356;2023-04-25T02:38:34;5.03;;;2.40;;
54745;SDS011;40640;48.130;11.356;2023-04-25T02:42:38;4.95;;;2.22;;
54745;SDS011;40640;48.130;11.356;2023-04-25T02:46:44;3.85;;;2.10;;
54745;SDS011;40640;48.130;11.356;2023-04-25T02:50:47;9.30;;;2.67;;
54745;SDS011;40640;48.130;11.356;2023-04-25T02:54:50;4.95;;;2.30;;
54745;SDS011;40640;48.130;11.356;2023-04-25T02:58:53;5.03;;;1.88;;
54745;SDS011;40640;48.130;11.356;2023-04-25T03:02:57;8.25;;;2.28;;
54745;SDS011;40640;48.130;11.356;2023-04-25T03:07:01;5.25;;;2.20;;
54745;SDS011;40640;48.130;11.356;2023-04-25T03:11:03;4.15;;;2.47;;
54745;SDS011;40640;48.130;11.356;2023-04-25T03:15:07;3.78;;;2.25;;
54745;SDS011;40640;48.130;11.356;2023-04-25T03:19:11;4.75;;;2.30;;
54745;SDS011;40640;48.130;11.356;2023-04-25T03:23:17;3.53;;;1.75;;
54745;SDS011;40640;48.130;11.356;2023-04-25T03:27:20;1.92;;;1.50;;
54745;SDS011;40640;48.130;11.356;2023-04-25T03:31:23;3.60;;;1.77;;
54745;SDS011;40640;48.130;11.356;2023-04-25T03:35:27;3.03;;;1.60;;
54745;SDS011;40640;48.130;11.356;2023-04-25T03:39:31;2.72;;;1.50;;
54745;SDS011;40640;48.130;11.356;2023-04-25T03:43:34;2.20;;;1.73;;
54745;SDS011;40640;48.130;11.356;2023-04-25T03:47:41;1.90;;;1.40;;
54745;SDS011;40640;48.130;11.356;2023-04-25T03:51:46;2.75;;;1.90;;
54745;SDS011;40640;48.130;11.356;2023-04-25T03:55:50;3.55;;;1.90;;
54745;SDS011;40640;48.130;11.356;2023-04-25T03:59:52;1.88;;;1.63;;
54745;SDS011;40640;48.130;11.356;2023-04-25T04:03:56;8.60;;;3.13;;
54745;SDS011;40640;48.130;11.356;2023-04-25T04:08:02;5.18;;;1.67;;
54745;SDS011;40640;48.130;11.356;2023-04-25T04:12:06;2.65;;;1.55;;
54745;SDS011;40640;48.130;11.356;2023-04-25T04:16:11;3.92;;;2.15;;
54745;SDS011;40640;48.130;11.356;2023-04-25T04:20:14;3.30;;;1.90;;
54745;SDS011;40640;48.130;11.356;2023-04-25T04:24:19;7.85;;;1.85;;
54745;SDS011;40640;48.130;11.356;2023-04-25T04:28:28;5.35;;;2.00;;
54745;SDS011;40640;48.130;11.356;2023-04-25T04:32:51;3.75;;;1.83;;
54745;SDS011;40640;48.130;11.356;2023-04-25T04:36:55;3.05;;;2.00;;
54745;SDS011;40640;48.130;11.356;2023-04-25T04:41:00;2.90;;;1.83;;
54745;SDS011;40640;48.130;11.356;2023-04-25T04:45:14;4.85;;;2.17;;
54745;SDS011;40640;48.130;11.356;2023-04-25T04:49:29;4.78;;;2.65;;
54745;SDS011;40640;48.130;11.356;2023-04-25T04:53:54;4.00;;;2.50;;
54745;SDS011;40640;48.130;11.356;2023-04-25T04:58:24;4.72;;;2.40;;
54745;SDS011;40640;48.130;11.356;2023-04-25T05:02:51;7.40;;;3.05;;
54745;SDS011;40640;48.130;11.356;2023-04-25T05:07:23;8.18;;;2.92;;
54745;SDS011;40640;48.130;11.356;2023-04-25T05:11:49;4.53;;;2.58;;
54745;SDS011;40640;48.130;11.356;2023-04-25T05:16:13;6.75;;;2.80;;
54745;SDS011;40640;48.130;11.356;2023-04-25T05:20:42;3.42;;;2.33;;
54745;SDS011;40640;48.130;11.356;2023-04-25T05:24:55;5.95;;;2.65;;
54745;SDS011;40640;48.130;11.356;2023-04-25T05:29:06;6.70;;;2.80;;
54745;SDS011;40640;48.130;11.356;2023-04-25T05:33:33;4.82;;;2.33;;
54745;SDS011;40640;48.130;11.356;2023-04-25T05:37:36;3.28;;;1.58;;
54745;SDS011;40640;48.130;11.356;2023-04-25T05:41:49;7.65;;;2.00;;
54745;SDS011;40640;48.130;11.356;2023-04-25T05:46:10;15.20;;;2.85;;
54745;SDS011;40640;48.130;11.356;2023-04-25T05:50:29;5.97;;;2.60;;
54745;SDS011;40640;48.130;11.356;2023-04-25T05:54:38;7.07;;;2.72;;
54745;SDS011;40640;48.130;11.356;2023-04-25T05:58:41;7.38;;;2.70;;
54745;SDS011;40640;48.130;11.356;2023-04-25T06:02:46;4.75;;;2.63;;
54745;SDS011;40640;48.130;11.356;2023-04-25T06:06:51;4.13;;;2.35;;
54745;SDS011;40640;48.130;11.356;2023-04-25T06:10:56;3.42;;;2.50;;
54745;SDS011;40640;48.130;11.356;2023-04-25T06:14:59;4.45;;;2.83;;
54745;SDS011;40640;48.130;11.356;2023-04-25T06:19:04;10.00;;;2.83;;
54745;SDS011;40640;48.130;11.356;2023-04-25T06:23:09;7.07;;;2.70;;
54745;SDS011;40640;48.130;11.356;2023-04-25T06:27:20;2.33;;;2.05;;
54745;SDS011;40640;48.130;11.356;2023-04-25T06:31:23;5.18;;;2.38;;
54745;SDS011;40640;48.130;11.356;2023-04-25T06:35:29;3.93;;;2.20;;
54745;SDS011;40640;48.130;11.356;2023-04-25T06:39:33;5.38;;;2.08;;
54745;SDS011;40640;48.130;11.356;2023-04-25T06:43:41;3.78;;;2.20;;
54745;SDS011;40640;48.130;11.356;2023-04-25T06:47:56;4.28;;;2.25;;
54745;SDS011;40640;48.130;11.356;2023-04-25T06:51:59;5.32;;;2.40;;
54745;SDS011;40640;48.130;11.356;2023-04-25T06:56:03;8.10;;;2.78;;
54745;SDS011;40640;48.130;11.356;2023-04-25T07:00:19;4.43;;;1.90;;
54745;SDS011;40640;48.130;11.356;2023-04-25T07:04:22;4.72;;;2.38;;
54745;SDS011;40640;48.130;11.356;2023-04-25T07:08:29;5.35;;;2.20;;
54745;SDS011;40640;48.130;11.356;2023-04-25T07:12:34;5.50;;;2.05;;
54745;SDS011;40640;48.130;11.356;2023-04-25T07:16:38;3.88;;;2.03;;
54745;SDS011;40640;48.130;11.356;2023-04-25T07:20:42;4.55;;;2.40;;
54745;SDS011;40640;48.130;11.356;2023-04-25T07:24:46;5.20;;;2.80;;
54745;SDS011;40640;48.130;11.356;2023-04-25T07:28:54;5.60;;;2.33;;
54745;SDS011;40640;48.130;11.356;2023-04-25T07:32:58;5.10;;;2.20;;
54745;SDS011;40640;48.130;11.356;2023-04-25T07:37:01;3.92;;;2.10;;
54745;SDS011;40640;48.130;11.356;2023-04-25T07:41:12;3.75;;;2.30;;
54745;SDS011;40640;48.130;11.356;2023-04-25T07:45:16;4.32;;;1.98;;
54745;SDS011;40640;48.130;11.356;2023-04-25T07:49:20;3.08;;;1.90;;
54745;SDS011;40640;48.130;11.356;2023-04-25T07:53:23;3.30;;;2.17;;
54745;SDS011;40640;48.130;11.356;2023-04-25T07:57:32;4.85;;;2.20;;
54745;SDS011;40640;48.130;11.356;2023-04-25T08:01:38;3.70;;;1.92;;
54745;SDS011;40640;48.130;11.356;2023-04-25T08:05:41;5.57;;;1.80;;
54745;SDS011;40640;48.130;11.356;2023-04-25T08:09:46;4.90;;;2.22;;
54745;SDS011;40640;48.130;11.356;2023-04-25T08:13:57;3.97;;;2.13;;
54745;SDS011;40640;48.130;11.356;2023-04-25T08:18:02;6.50;;;1.73;;
54745;SDS011;40640;48.130;11.356;2023-04-25T08:22:06;4.60;;;1.80;;
54745;SDS011;40640;48.130;11.356;2023-04-25T08:26:19;4.07;;;1.50;;
54745;SDS011;40640;48.130;11.356;2023-04-25T08:30:24;4.73;;;1.40;;
54745;SDS011;40640;48.130;11.356;2023-04-25T08:34:29;6.45;;;1.50;;
54745;SDS011;40640;48.130;11.356;2023-04-25T08:38:37;3.72;;;1.38;;
54745;SDS011;40640;48.130;11.356;2023-04-25T08:42:43;3.60;;;1.95;;
54745;SDS011;40640;48.130;11.356;2023-04-25T08:46:47;3.05;;;1.27;;
54745;SDS011;40640;48.130;11.356;2023-04-25T08:51:02;4.43;;;1.38;;
54745;SDS011;40640;48.130;11.356;2023-04-25T08:55:12;2.60;;;1.55;;
54745;SDS011;40640;48.130;11.356;2023-04-25T08:59:16;3.03;;;1.20;;
54745;SDS011;40640;48.130;11.356;2023-04-25T09:03:20;4.28;;;1.10;;
54745;SDS011;40640;48.130;11.356;2023-04-25T09:07:26;2.15;;;1.17;;
54745;SDS011;40640;48.130;11.356;2023-04-25T09:11:29;4.40;;;1.45;;
54745;SDS011;40640;48.130;11.356;2023-04-25T09:15:46;3.03;;;1.40;;
54745;SDS011;40640;48.130;11.356;2023-04-25T09:20:07;3.97;;;1.50;;
54745;SDS011;40640;48.130;11.356;2023-04-25T09:24:13;4.55;;;1.33;;
54745;SDS011;40640;48.130;11.356;2023-04-25T09:28:16;3.47;;;1.60;;
54745;SDS011;40640;48.130;11.356;2023-04-25T09:32:25;3.28;;;1.42;;
54745;SDS011;40640;48.130;11.356;2023-04-25T09:36:30;3.20;;;1.50;;
54745;SDS011;40640;48.130;11.356;2023-04-25T09:40:49;4.13;;;1.90;;
54745;SDS011;40640;48.130;11.356;2023-04-25T09:45:03;2.83;;;1.50;;
54745;SDS011;40640;48.130;11.356;2023-04-25T09:49:11;2.33;;;1.30;;
54745;SDS011;40640;48.130;11.356;2023-04-25T09:53:25;1.75;;;1.35;;
54745;SDS011;40640;48.130;11.356;2023-04-25T09:57:42;3.50;;;1.57;;
54745;SDS011;40640;48.130;11.356;2023-04-25T10:01:48;3.35;;;1.40;;
54745;SDS011;40640;48.130;11.356;2023-04-25T10:06:02;2.58;;;1.30;;
54745;SDS011;40640;48.130;11.356;2023-04-25T10:10:06;2.30;;;1.25;;
54745;SDS011;40640;48.130;11.356;2023-04-25T10:14:11;4.97;;;1.58;;
54745;SDS011;40640;48.130;11.356;2023-04-25T10:18:15;6.78;;;1.98;;
54745;SDS011;40640;48.130;11.356;2023-04-25T10:22:20;2.35;;;1.10;;
54745;SDS011;40640;48.130;11.356;2023-04-25T10:26:28;1.35;;;0.68;;
54745;SDS011;40640;48.130;11.356;2023-04-25T10:30:33;3.40;;;1.30;;
54745;SDS011;40640;48.130;11.356;2023-04-25T10:34:40;1.55;;;1.42;;
54745;SDS011;40640;48.130;11.356;2023-04-25T10:38:44;1.88;;;1.20;;
54745;SDS011;40640;48.130;11.356;2023-04-25T10:42:47;4.78;;;1.30;;
54745;SDS011;40640;48.130;11.356;2023-04-25T10:46:52;2.60;;;1.40;;
54745;SDS011;40640;48.130;11.356;2023-04-25T10:51:09;2.08;;;1.30;;
54745;SDS011;40640;48.130;11.356;2023-04-25T10:55:13;4.27;;;1.37;;
54745;SDS011;40640;48.130;11.356;2023-04-25T10:59:17;2.08;;;1.35;;
54745;SDS011;40640;48.130;11.356;2023-04-25T11:03:23;5.22;;;1.02;;
54745;SDS011;40640;48.130;11.356;2023-04-25T11:07:30;3.28;;;1.02;;
54745;SDS011;40640;48.130;11.356;2023-04-25T11:11:39;3.42;;;1.20;;
54745;SDS011;40640;48.130;11.356;2023-04-25T11:15:42;2.45;;;1.20;;
54745;SDS011;40640;48.130;11.356;2023-04-25T11:19:47;6.60;;;1.80;;
54745;SDS011;40640;48.130;11.356;2023-04-25T11:23:50;4.18;;;1.50;;
54745;SDS011;40640;48.130;11.356;2023-04-25T11:27:55;5.13;;;1.50;;
54745;SDS011;40640;48.130;11.356;2023-04-25T11:31:59;2.60;;;1.50;;
54745;SDS011;40640;48.130;11.356;2023-04-25T11:36:05;1.67;;;0.95;;
54745;SDS011;40640;48.130;11.356;2023-04-25T11:40:09;3.45;;;1.02;;
54745;SDS011;40640;48.130;11.356;2023-04-25T11:44:15;0.90;;;0.90;;
54745;SDS011;40640;48.130;11.356;2023-04-25T11:48:18;1.15;;;0.95;;
54745;SDS011;40640;48.130;11.356;2023-04-25T11:52:43;0.77;;;0.70;;
54745;SDS011;40640;48.130;11.356;2023-04-25T11:56:47;0.95;;;0.70;;
54745;SDS011;40640;48.130;11.356;2023-04-25T12:00:50;0.90;;;0.63;;
54745;SDS011;40640;48.130;11.356;2023-04-25T12:04:53;2.67;;;1.40;;
54745;SDS011;40640;48.130;11.356;2023-04-25T12:09:28;3.35;;;2.03;;
54745;SDS011;40640;48.130;11.356;2023-04-25T12:13:33;1.30;;;0.73;;
54745;SDS011;40640;48.130;11.356;2023-04-25T12:17:35;1.92;;;0.90;;
54745;SDS011;40640;48.130;11.356;2023-04-25T12:21:39;2.45;;;1.15;;
54745;SDS011;40640;48.130;11.356;2023-04-25T12:25:59;0.85;;;0.80;;
54745;SDS011;40640;48.130;11.356;2023-04-25T12:34:08;1.17;;;0.70;;
54745;SDS011;40640;48.130;11.356;2023-04-25T12:38:11;1.52;;;0.90;;
54745;SDS011;40640;48.130;11.356;2023-04-25T12:42:15;1.58;;;0.93;;
54745;SDS011;40640;48.130;11.356;2023-04-25T12:46:18;1.17;;;0.80;;
54745;SDS011;40640;48.130;11.356;2023-04-25T12:50:21;1.00;;;0.88;;
54745;SDS011;40640;48.130;11.356;2023-04-25T12:54:24;2.08;;;0.85;;
54745;SDS011;40640;48.130;11.356;2023-04-25T12:58:28;0.50;;;0.43;;
54745;SDS011;40640;48.130;11.356;2023-04-25T13:02:31;0.70;;;0.50;;
54745;SDS011;40640;48.130;11.356;2023-04-25T13:06:35;0.52;;;0.45;;
54745;SDS011;40640;48.130;11.356;2023-04-25T13:10:37;0.40;;;0.40;;
54745;SDS011;40640;48.130;11.356;2023-04-25T13:14:42;2.80;;;1.52;;
54745;SDS011;40640;48.130;11.356;2023-04-25T13:18:45;1.70;;;0.60;;
54745;SDS011;40640;48.130;11.356;2023-04-25T13:22:48;0.65;;;0.50;;
54745;SDS011;40640;48.130;11.356;2023-04-25T13:26:51;1.30;;;0.60;;
54745;SDS011;40640;48.130;11.356;2023-04-25T13:30:55;1.00;;;0.90;;
54745;SDS011;40640;48.130;11.356;2023-04-25T13:34:59;1.02;;;0.60;;
54745;SDS011;40640;48.130;11.356;2023-04-25T13:39:06;0.40;;;0.40;;
54745;SDS011;40640;48.130;11.356;2023-04-25T13:43:09;0.50;;;0.30;;
54745;SDS011;40640;48.130;11.356;2023-04-25T13:47:13;3.25;;;1.80;;
54745;SDS011;40640;48.130;11.356;2023-04-25T13:51:16;0.60;;;0.57;;
54745;SDS011;40640;48.130;11.356;2023-04-25T13:55:19;0.68;;;0.55;;
54745;SDS011;40640;48.130;11.356;2023-04-25T13:59:22;0.75;;;0.30;;
54745;SDS011;40640;48.130;11.356;2023-04-25T14:03:27;0.65;;;0.50;;
54745;SDS011;40640;48.130;11.356;2023-04-25T14:07:30;1.05;;;0.52;;
54745;SDS011;40640;48.130;11.356;2023-04-25T14:11:32;0.50;;;0.38;;
54745;SDS011;40640;48.130;11.356;2023-04-25T14:15:35;0.57;;;0.30;;
54745;SDS011;40640;48.130;11.356;2023-04-25T14:19:40;2.90;;;2.00;;
54745;SDS011;40640;48.130;11.356;2023-04-25T14:23:44;0.63;;;0.60;;
54745;SDS011;40640;48.130;11.356;2023-04-25T14:27:48;0.55;;;0.40;;
54745;SDS011;40640;48.130;11.356;2023-04-25T14:31:51;1.10;;;1.00;;
54745;SDS011;40640;48.130;11.356;2023-04-25T14:35:56;0.80;;;0.60;;
54745;SDS011;40640;48.130;11.356;2023-04-25T14:39:59;0.85;;;0.57;;
54745;SDS011;40640;48.130;11.356;2023-04-25T14:44:02;2.42;;;0.75;;
54745;SDS011;40640;48.130;11.356;2023-04-25T14:48:05;0.50;;;0.50;;
54745;SDS011;40640;48.130;11.356;2023-04-25T14:52:09;1.35;;;0.90;;
54745;SDS011;40640;48.130;11.356;2023-04-25T14:56:12;0.82;;;0.40;;
54745;SDS011;40640;48.130;11.356;2023-04-25T15:00:15;1.08;;;0.68;;
54745;SDS011;40640;48.130;11.356;2023-04-25T15:04:20;1.70;;;0.65;;
54745;SDS011;40640;48.130;11.356;2023-04-25T15:08:25;0.90;;;0.70;;
54745;SDS011;40640;48.130;11.356;2023-04-25T15:12:28;3.65;;;0.65;;
54745;SDS011;40640;48.130;11.356;2023-04-25T15:16:31;1.00;;;0.88;;
54745;SDS011;40640;48.130;11.356;2023-04-25T15:20:34;0.80;;;0.80;;
54745;SDS011;40640;48.130;11.356;2023-04-25T15:24:38;1.35;;;0.88;;
54745;SDS011;40640;48.130;11.356;2023-04-25T15:28:41;0.73;;;0.73;;
54745;SDS011;40640;48.130;11.356;2023-04-25T15:32:44;0.60;;;0.45;;
54745;SDS011;40640;48.130;11.356;2023-04-25T15:36:48;2.08;;;0.93;;
54745;SDS011;40640;48.130;11.356;2023-04-25T15:40:52;0.82;;;0.82;;
54745;SDS011;40640;48.130;11.356;2023-04-25T15:44:55;1.70;;;1.10;;
54745;SDS011;40640;48.130;11.356;2023-04-25T15:48:58;2.20;;;1.00;;
54745;SDS011;40640;48.130;11.356;2023-04-25T15:53:01;1.10;;;0.80;;
54745;SDS011;40640;48.130;11.356;2023-04-25T15:57:08;1.73;;;1.30;;
54745;SDS011;40640;48.130;11.356;2023-04-25T16:01:13;1.17;;;1.08;;
54745;SDS011;40640;48.130;11.356;2023-04-25T16:05:17;1.13;;;1.02;;
54745;SDS011;40640;48.130;11.356;2023-04-25T16:09:21;4.72;;;1.45;;
54745;SDS011;40640;48.130;11.356;2023-04-25T16:13:25;2.05;;;1.13;;
54745;SDS011;40640;48.130;11.356;2023-04-25T16:17:28;1.73;;;1.30;;
54745;SDS011;40640;48.130;11.356;2023-04-25T16:21:31;4.82;;;1.38;;
54745;SDS011;40640;48.130;11.356;2023-04-25T16:25:33;2.95;;;1.40;;
54745;SDS011;40640;48.130;11.356;2023-04-25T16:29:38;2.83;;;1.75;;
54745;SDS011;40640;48.130;11.356;2023-04-25T16:33:41;2.63;;;1.80;;
54745;SDS011;40640;48.130;11.356;2023-04-25T16:37:43;1.80;;;1.70;;
54745;SDS011;40640;48.130;11.356;2023-04-25T16:41:46;2.50;;;1.60;;
54745;SDS011;40640;48.130;11.356;2023-04-25T16:45:50;3.42;;;1.90;;
54745;SDS011;40640;48.130;11.356;2023-04-25T16:49:53;1.77;;;1.60;;
54745;SDS011;40640;48.130;11.356;2023-04-25T16:53:56;3.00;;;2.08;;
54745;SDS011;40640;48.130;11.356;2023-04-25T16:57:59;5.47;;;2.10;;
54745;SDS011;40640;48.130;11.356;2023-04-25T17:02:03;3.10;;;2.08;;
54745;SDS011;40640;48.130;11.356;2023-04-25T17:06:08;4.40;;;2.38;;
54745;SDS011;40640;48.130;11.356;2023-04-25T17:10:11;2.72;;;2.15;;
54745;SDS011;40640;48.130;11.356;2023-04-25T17:14:14;2.75;;;2.13;;
54745;SDS011;40640;48.130;11.356;2023-04-25T17:18:18;2.65;;;2.10;;
54745;SDS011;40640;48.130;11.356;2023-04-25T17:22:23;4.30;;;2.30;;
54745;SDS011;40640;48.130;11.356;2023-04-25T17:26:26;3.15;;;2.10;;
54745;SDS011;40640;48.130;11.356;2023-04-25T17:30:29;2.40;;;2.20;;
54745;SDS011;40640;48.130;11.356;2023-04-25T17:34:34;3.78;;;2.63;;
54745;SDS011;40640;48.130;11.356;2023-04-25T17:38:40;4.82;;;2.80;;
54745;SDS011;40640;48.130;11.356;2023-04-25T17:42:43;5.53;;;2.58;;
54745;SDS011;40640;48.130;11.356;2023-04-25T17:46:46;4.35;;;3.00;;
54745;SDS011;40640;48.130;11.356;2023-04-25T17:50:50;7.82;;;3.08;;
54745;SDS011;40640;48.130;11.356;2023-04-25T17:54:53;5.78;;;4.20;;
54745;SDS011;40640;48.130;11.356;2023-04-25T17:58:56;5.57;;;4.00;;
54745;SDS011;40640;48.130;11.356;2023-04-25T18:02:59;3.72;;;2.78;;
54745;SDS011;40640;48.130;11.356;2023-04-25T18:07:04;5.78;;;3.45;;
54745;SDS011;40640;48.130;11.356;2023-04-25T18:11:07;3.42;;;2.08;;
54745;SDS011;40640;48.130;11.356;2023-04-25T18:15:10;2.10;;;1.58;;
54745;SDS011;40640;48.130;11.356;2023-04-25T18:19:13;4.28;;;2.88;;
54745;SDS011;40640;48.130;11.356;2023-04-25T18:23:22;2.70;;;1.98;;
54745;SDS011;40640;48.130;11.356;2023-04-25T18:27:25;3.63;;;2.60;;
54745;SDS011;40640;48.130;11.356;2023-04-25T18:31:28;5.55;;;3.33;;
54745;SDS011;40640;48.130;11.356;2023-04-25T18:35:32;6.25;;;3.88;;
54745;SDS011;40640;48.130;11.356;2023-04-25T18:39:40;5.25;;;2.60;;
54745;SDS011;40640;48.130;11.356;2023-04-25T18:43:43;4.78;;;3.28;;
54745;SDS011;40640;48.130;11.356;2023-04-25T18:47:45;7.88;;;6.75;;
54745;SDS011;40640;48.130;11.356;2023-04-25T18:51:48;4.68;;;3.40;;
54745;SDS011;40640;48.130;11.356;2023-04-25T18:55:53;5.43;;;3.40;;
54745;SDS011;40640;48.130;11.356;2023-04-25T18:59:56;6.75;;;4.43;;
54745;SDS011;40640;48.130;11.356;2023-04-25T19:03:59;5.25;;;2.70;;
54745;SDS011;40640;48.130;11.356;2023-04-25T19:08:06;4.20;;;2.90;;
54745;SDS011;40640;48.130;11.356;2023-04-25T19:12:10;3.58;;;2.50;;
54745;SDS011;40640;48.130;11.356;2023-04-25T19:16:13;8.13;;;3.92;;
54745;SDS011;40640;48.130;11.356;2023-04-25T19:20:16;5.32;;;3.33;;
54745;SDS011;40640;48.130;11.356;2023-04-25T19:24:21;8.20;;;4.72;;
54745;SDS011;40640;48.130;11.356;2023-04-25T19:28:25;8.73;;;4.50;;
54745;SDS011;40640;48.130;11.356;2023-04-25T19:32:28;9.63;;;4.72;;
54745;SDS011;40640;48.130;11.356;2023-04-25T19:36:32;8.63;;;4.28;;
54745;SDS011;40640;48.130;11.356;2023-04-25T19:40:35;5.60;;;3.08;;
54745;SDS011;40640;48.130;11.356;2023-04-25T19:44:39;4.70;;;2.90;;
54745;SDS011;40640;48.130;11.356;2023-04-25T19:48:42;6.28;;;3.17;;
54745;SDS011;40640;48.130;11.356;2023-04-25T19:52:45;5.07;;;3.55;;
54745;SDS011;40640;48.130;11.356;2023-04-25T19:56:48;5.50;;;3.58;;
54745;SDS011;40640;48.130;11.356;2023-04-25T20:00:52;6.15;;;3.80;;
54745;SDS011;40640;48.130;11.356;2023-04-25T20:04:56;15.98;;;8.68;;
54745;SDS011;40640;48.130;11.356;2023-04-25T20:08:59;12.02;;;6.82;;
54745;SDS011;40640;48.130;11.356;2023-04-25T20:13:01;10.82;;;6.40;;
54745;SDS011;40640;48.130;11.356;2023-04-25T20:17:07;14.57;;;7.53;;
54745;SDS011;40640;48.130;11.356;2023-04-25T20:21:11;37.07;;;18.37;;
54745;SDS011;40640;48.130;11.356;2023-04-25T20:25:14;18.73;;;10.57;;
54745;SDS011;40640;48.130;11.356;2023-04-25T20:29:17;14.70;;;6.93;;
54745;SDS011;40640;48.130;11.356;2023-04-25T20:33:21;10.65;;;6.32;;
54745;SDS011;40640;48.130;11.356;2023-04-25T20:37:24;7.82;;;4.63;;
54745;SDS011;40640;48.130;11.356;2023-04-25T20:41:27;7.15;;;4.57;;
54745;SDS011;40640;48.130;11.356;2023-04-25T20:45:31;11.10;;;5.57;;
54745;SDS011;40640;48.130;11.356;2023-04-25T20:49:36;8.23;;;5.75;;
54745;SDS011;40640;48.130;11.356;2023-04-25T20:53:39;9.02;;;5.18;;
54745;SDS011;40640;48.130;11.356;2023-04-25T20:57:41;8.52;;;4.90;;
54745;SDS011;40640;48.130;11.356;2023-04-25T21:01:44;9.90;;;4.45;;
54745;SDS011;40640;48.130;11.356;2023-04-25T21:05:49;4.90;;;3.80;;
54745;SDS011;40640;48.130;11.356;2023-04-25T21:09:51;5.50;;;4.07;;
54745;SDS011;40640;48.130;11.356;2023-04-25T21:13:54;7.25;;;4.38;;
54745;SDS011;40640;48.130;11.356;2023-04-25T21:17:57;6.57;;;4.20;;
54745;SDS011;40640;48.130;11.356;2023-04-25T21:22:01;6.03;;;4.22;;
54745;SDS011;40640;48.130;11.356;2023-04-25T21:26:04;5.45;;;4.15;;
54745;SDS011;40640;48.130;11.356;2023-04-25T21:30:08;6.78;;;4.90;;
54745;SDS011;40640;48.130;11.356;2023-04-25T21:34:11;7.00;;;4.32;;
54745;SDS011;40640;48.130;11.356;2023-04-25T21:38:15;5.80;;;4.07;;
54745;SDS011;40640;48.130;11.356;2023-04-25T21:42:18;9.95;;;4.53;;
54745;SDS011;40640;48.130;11.356;2023-04-25T21:46:21;6.88;;;4.43;;
54745;SDS011;40640;48.130;11.356;2023-04-25T21:50:25;8.25;;;3.97;;
54745;SDS011;40640;48.130;11.356;2023-04-25T21:54:30;6.85;;;3.78;;
54745;SDS011;40640;48.130;11.356;2023-04-25T21:58:33;5.97;;;4.47;;
54745;SDS011;40640;48.130;11.356;2023-04-25T22:02:36;10.48;;;4.47;;
54745;SDS011;40640;48.130;11.356;2023-04-25T22:06:40;5.80;;;3.88;;
54745;SDS011;40640;48.130;11.356;2023-04-25T22:10:44;6.28;;;4.70;;
54745;SDS011;40640;48.130;11.356;2023-04-25T22:14:47;5.63;;;4.28;;
54745;SDS011;40640;48.130;11.356;2023-04-25T22:18:50;6.50;;;4.85;;
54745;SDS011;40640;48.130;11.356;2023-04-25T22:22:54;6.25;;;4.55;;
54745;SDS011;40640;48.130;11.356;2023-04-25T22:26:58;7.78;;;4.85;;
54745;SDS011;40640;48.130;11.356;2023-04-25T22:31:01;8.90;;;5.25;;
54745;SDS011;40640;48.130;11.356;2023-04-25T22:35:04;7.30;;;4.72;;
54745;SDS011;40640;48.130;11.356;2023-04-25T22:39:08;8.48;;;4.82;;
54745;SDS011;40640;48.130;11.356;2023-04-25T22:43:12;8.32;;;5.55;;
54745;SDS011;40640;48.130;11.356;2023-04-25T22:47:15;7.30;;;5.32;;
54745;SDS011;40640;48.130;11.356;2023-04-25T22:51:18;6.60;;;4.97;;
54745;SDS011;40640;48.130;11.356;2023-04-25T22:55:21;6.95;;;4.85;;
54745;SDS011;40640;48.130;11.356;2023-04-25T22:59:25;9.82;;;5.20;;
54745;SDS011;40640;48.130;11.356;2023-04-25T23:03:28;9.63;;;5.55;;
54745;SDS011;40640;48.130;11.356;2023-04-25T23:07:33;10.88;;;5.45;;
54745;SDS011;40640;48.130;11.356;2023-04-25T23:11:35;10.68;;;5.30;;
54745;SDS011;40640;48.130;11.356;2023-04-25T23:15:40;8.63;;;5.35;;
54745;SDS011;40640;48.130;11.356;2023-04-25T23:19:42;7.68;;;5.30;;
54745;SDS011;40640;48.130;11.356;2023-04-25T23:23:46;10.32;;;5.45;;
54745;SDS011;40640;48.130;11.356;2023-04-25T23:27:49;9.77;;;5.88;;
54745;SDS011;40640;48.130;11.356;2023-04-25T23:31:54;11.55;;;6.10;;
54745;SDS011;40640;48.130;11.356;2023-04-25T23:35:57;11.93;;;6.50;;
54745;SDS011;40640;48.130;11.356;2023-04-25T23:40:00;9.77;;;6.30;;
54745;SDS011;40640;48.130;11.356;2023-04-25T23:44:08;10.55;;;5.93;;
54745;SDS011;40640;48.130;11.356;2023-04-25T23:48:12;9.25;;;5.25;;
54745;SDS011;40640;48.130;11.356;2023-04-25T23:52:15;12.57;;;5.60;;
54745;SDS011;40640;48.130;11.356;2023-04-25T23:56:18;9.32;;;5.30;;
